Abaujszanto, Hungary
Current Conditions -  °F | °C
As of 9:00 AM on Friday 19 Dec 2014 (Local Time) from LZKZ Reporting Station
Haze Haze  
Wind Chill: 33°   Ceiling: 100
Heat Index: 39°   Visibility: 1mi
Dew Point: 39°   Wind: 9mph
Humidity: 100%   Direction: 190°S
Pressure: 30"   Gusts: NA
Location:  48.28°N, 21.18°E
Report Text: LZKZ 190700Z 19008KT 1600 BR OVC001 04/04 Q1016 TEMPO 1400 BR
Loading
Personal Weather Stations






























Interactive Weather Map New forecast layout! Learn more

10-Day Weather Forecast

Advertisements
Track Severe Weather on mobile